createdAt,value
2023-02-25T00:02:11.203Z,982.6
2023-02-25T00:04:58.908Z,982.5
2023-02-25T00:07:51.187Z,982.4
2023-02-25T00:10:39.313Z,982.4
2023-02-25T00:13:26.647Z,982.3
2023-02-25T00:16:15.148Z,982.3
2023-02-25T00:19:03.435Z,982.3
2023-02-25T00:21:51.261Z,982.2
2023-02-25T00:24:38.576Z,982.3
2023-02-25T00:27:26.178Z,982.2
2023-02-25T00:30:13.996Z,982.2
2023-02-25T00:33:01.638Z,982.1
2023-02-25T00:35:51.237Z,982
2023-02-25T00:38:38.989Z,982
2023-02-25T00:41:26.511Z,982
2023-02-25T00:44:15.419Z,982
2023-02-25T00:47:02.797Z,981.9
2023-02-25T00:49:51.173Z,981.9
2023-02-25T00:52:38.509Z,981.9
2023-02-25T00:55:26.440Z,981.9
2023-02-25T00:58:17.915Z,981.9
2023-02-25T01:01:05.764Z,981.8
2023-02-25T01:04:03.522Z,981.8
2023-02-25T01:06:53.149Z,981.7
2023-02-25T01:09:40.890Z,981.7
2023-02-25T01:12:28.451Z,981.7
2023-02-25T01:15:15.896Z,981.6
2023-02-25T01:18:03.382Z,981.6
2023-02-25T01:20:51.442Z,981.5
2023-02-25T01:23:38.759Z,981.5
2023-02-25T01:26:26.296Z,981.4
2023-02-25T01:29:16.385Z,981.5
2023-02-25T01:32:07.127Z,981.5
2023-02-25T01:34:58.327Z,981.4
2023-02-25T01:37:45.973Z,981.4
2023-02-25T01:40:34.758Z,981.3
2023-02-25T01:43:22.618Z,981.3
2023-02-25T01:46:10.440Z,981.2
2023-02-25T01:48:57.921Z,981.2
2023-02-25T01:51:47.090Z,981.1
2023-02-25T01:54:39.014Z,981.3
2023-02-25T01:57:29.833Z,981.1
2023-02-25T02:00:17.389Z,981.1
2023-02-25T02:03:05.733Z,981.1
2023-02-25T02:06:00.679Z,981
2023-02-25T02:08:55.260Z,980.9
2023-02-25T02:11:43.449Z,980.8
2023-02-25T02:14:30.813Z,980.8
2023-02-25T02:17:21.001Z,980.8
2023-02-25T02:20:12.495Z,980.8
2023-02-25T02:23:05.532Z,980.8
2023-02-25T02:26:31.970Z,980.7
2023-02-25T02:29:46.940Z,980.7
2023-02-25T02:32:59.978Z,980.6
2023-02-25T02:35:59.684Z,980.6
2023-02-25T02:38:53.821Z,980.5
2023-02-25T02:41:53.391Z,980.5
2023-02-25T02:44:47.658Z,980.5
2023-02-25T02:47:41.813Z,980.4
2023-02-25T02:50:34.983Z,980.4
2023-02-25T02:53:26.462Z,980.4
2023-02-25T02:56:19.698Z,980.4
2023-02-25T02:59:09.975Z,980.4
2023-02-25T03:02:00.382Z,980.4
2023-02-25T03:04:53.469Z,980.3
2023-02-25T03:07:46.021Z,980.3
2023-02-25T03:10:41.022Z,980.4
2023-02-25T03:13:29.521Z,980.4
2023-02-25T03:16:17.232Z,980.3
2023-02-25T03:19:09.669Z,980.4
2023-02-25T03:22:00.966Z,980.3
2023-02-25T03:24:53.045Z,980.3
2023-02-25T03:27:47.385Z,980.2
2023-02-25T03:30:37.642Z,980.2
2023-02-25T03:33:29.615Z,980.2
2023-02-25T03:36:22.754Z,980.2
2023-02-25T03:39:13.683Z,980.2
2023-02-25T03:42:06.935Z,980.2
2023-02-25T03:45:00.851Z,980.2
2023-02-25T03:47:53.020Z,980.2
2023-02-25T03:50:42.741Z,980.2
2023-02-25T03:53:35.027Z,980.2
2023-02-25T03:56:23.347Z,980.1
2023-02-25T03:59:11.352Z,980.1
2023-02-25T04:01:59.717Z,980.1
2023-02-25T04:04:48.198Z,980.1
2023-02-25T04:07:35.739Z,980.1
2023-02-25T04:10:24.122Z,980.3
2023-02-25T04:13:12.771Z,980.2
2023-02-25T04:16:01.949Z,980.2
2023-02-25T04:18:50.253Z,980.3
2023-02-25T04:21:37.591Z,980.2
2023-02-25T04:24:25.004Z,980.3
2023-02-25T04:27:12.374Z,980.2
2023-02-25T04:30:00.281Z,980.3
2023-02-25T04:32:48.213Z,980.3
2023-02-25T04:35:35.580Z,980.3
2023-02-25T04:38:23.763Z,980.3
2023-02-25T04:41:11.067Z,980.3
2023-02-25T04:43:58.388Z,980.3
2023-02-25T04:46:49.538Z,980.3
2023-02-25T04:49:36.986Z,980.2
2023-02-25T04:52:29.424Z,980.2
2023-02-25T04:55:16.865Z,980.2
2023-02-25T04:58:05.077Z,980.1
2023-02-25T05:00:53.541Z,980.2
2023-02-25T05:03:42.479Z,980.1
2023-02-25T05:06:29.871Z,980.1
2023-02-25T05:09:17.633Z,980
2023-02-25T05:12:06.175Z,980.1
2023-02-25T05:14:54.767Z,980
2023-02-25T05:17:42.393Z,980.1
2023-02-25T05:20:29.885Z,980
2023-02-25T05:23:17.402Z,980
2023-02-25T05:26:04.990Z,980
2023-02-25T05:28:53.795Z,980.1
2023-02-25T05:31:42.758Z,980
2023-02-25T05:34:30.307Z,980.1
2023-02-25T05:37:17.660Z,980.1
2023-02-25T05:40:05.485Z,980.1
2023-02-25T05:42:58.482Z,980.1
2023-02-25T05:45:45.758Z,980.2
2023-02-25T05:48:38.858Z,980.2
2023-02-25T05:51:30.545Z,980.2
2023-02-25T05:54:17.929Z,980.2
2023-02-25T05:57:05.386Z,980.1
2023-02-25T05:59:52.712Z,980.3
2023-02-25T06:02:40.141Z,980.3
2023-02-25T06:05:28.892Z,980.3
2023-02-25T06:08:16.706Z,980.4
2023-02-25T06:11:04.414Z,980.4
2023-02-25T06:13:53.426Z,980.4
2023-02-25T06:16:42.014Z,980.4
2023-02-25T06:19:29.671Z,980.5
2023-02-25T06:22:17.102Z,980.5
2023-02-25T06:25:05.102Z,980.4
2023-02-25T06:27:53.566Z,980.5
2023-02-25T06:30:41.245Z,980.5
2023-02-25T06:33:28.580Z,980.6
2023-02-25T06:36:16.856Z,980.6
2023-02-25T06:39:05.885Z,980.7
2023-02-25T06:41:53.284Z,980.7
2023-02-25T06:44:40.705Z,980.7
2023-02-25T06:47:28.139Z,980.7
2023-02-25T06:50:15.621Z,980.8
2023-02-25T06:53:03.470Z,980.8
2023-02-25T06:55:52.678Z,980.9
2023-02-25T06:58:40.743Z,980.8
2023-02-25T07:01:28.369Z,980.9
2023-02-25T07:04:16.113Z,980.9
2023-02-25T07:07:05.100Z,980.6
2023-02-25T07:09:54.507Z,980.9
2023-02-25T07:12:41.855Z,980.9
2023-02-25T07:15:29.320Z,981
2023-02-25T07:18:16.884Z,981
2023-02-25T07:21:05.168Z,981
2023-02-25T07:23:53.329Z,981.1
2023-02-25T07:26:40.958Z,981
2023-02-25T07:29:28.456Z,981
2023-02-25T07:32:16.612Z,981.1
2023-02-25T07:35:04.114Z,981.1
2023-02-25T07:37:53.770Z,981.2
2023-02-25T07:40:41.073Z,981.2
2023-02-25T07:43:28.402Z,981.2
2023-02-25T07:46:16.068Z,981.3
2023-02-25T07:49:03.446Z,981.3
2023-02-25T07:51:51.476Z,981.4
2023-02-25T07:54:38.933Z,981.5
2023-02-25T07:57:26.516Z,981.4
2023-02-25T08:00:14.202Z,981.3
2023-02-25T08:03:02.502Z,981.5
2023-02-25T08:05:50.334Z,981.5
2023-02-25T08:08:38.820Z,981.4
2023-02-25T08:11:26.803Z,981.4
2023-02-25T08:14:14.222Z,981.4
2023-02-25T08:17:01.959Z,981.5
2023-02-25T08:19:49.353Z,981.5
2023-02-25T08:22:37.678Z,981.5
2023-02-25T08:25:25.070Z,981.5
2023-02-25T08:28:12.577Z,981.6
2023-02-25T08:31:00.058Z,981.6
2023-02-25T08:33:48.114Z,981.6
2023-02-25T08:36:37.292Z,981.6
2023-02-25T08:39:24.856Z,981.6
2023-02-25T08:42:13.747Z,981.7
2023-02-25T08:45:03.565Z,981.7
2023-02-25T08:47:52.498Z,981.8
2023-02-25T08:50:40.046Z,981.7
2023-02-25T08:53:27.400Z,981.8
2023-02-25T08:56:15.012Z,981.9
2023-02-25T08:59:03.276Z,981.8
2023-02-25T09:01:51.874Z,981.9
2023-02-25T09:04:39.250Z,982
2023-02-25T09:07:26.976Z,982
2023-02-25T09:10:14.371Z,982
2023-02-25T09:13:02.653Z,982
2023-02-25T09:15:50.365Z,982
2023-02-25T09:18:42.576Z,982
2023-02-25T09:21:31.031Z,982
2023-02-25T09:24:20.696Z,982.1
2023-02-25T09:27:08.706Z,982
2023-02-25T09:29:56.268Z,982.1
2023-02-25T09:32:43.850Z,982.1
2023-02-25T09:35:31.770Z,982.2
2023-02-25T09:38:19.116Z,982.2
2023-02-25T09:41:06.799Z,982.3
2023-02-25T09:44:10.280Z,982.3
2023-02-25T09:47:00.614Z,982.3
2023-02-25T09:49:55.096Z,982.4
2023-02-25T09:52:46.645Z,982.3
2023-02-25T09:55:46.197Z,982.3
2023-02-25T09:58:36.550Z,982.3
2023-02-25T10:01:28.432Z,982.4
2023-02-25T10:04:21.005Z,982.4
2023-02-25T10:07:17.747Z,982.4
2023-02-25T10:10:09.493Z,982.4
2023-02-25T10:13:05.791Z,982.5
2023-02-25T10:16:06.052Z,982.5
2023-02-25T10:19:12.147Z,982.5
2023-02-25T10:22:13.310Z,982.6
2023-02-25T10:25:13.914Z,982.6
2023-02-25T10:28:05.981Z,982.6
2023-02-25T10:31:01.382Z,982.6
2023-02-25T10:33:53.311Z,982.7
2023-02-25T10:36:42.385Z,982.7
2023-02-25T10:39:37.183Z,982.7
2023-02-25T10:42:25.679Z,982.8
2023-02-25T10:45:15.006Z,982.8
2023-02-25T10:48:08.511Z,982.9
2023-02-25T10:51:04.660Z,982.9
2023-02-25T10:53:56.747Z,982.9
2023-02-25T10:56:50.438Z,982.8
2023-02-25T10:59:39.499Z,982.8
2023-02-25T11:02:28.773Z,982.8
2023-02-25T11:05:23.343Z,982.8
2023-02-25T11:08:21.630Z,982.8
2023-02-25T11:11:14.890Z,982.9
2023-02-25T11:14:05.999Z,982.8
2023-02-25T11:17:01.541Z,982.9
2023-02-25T11:19:52.524Z,983.2
2023-02-25T11:22:46.715Z,982.9
2023-02-25T11:25:37.820Z,982.9
2023-02-25T11:28:28.326Z,982.9
2023-02-25T11:31:19.156Z,982.9
2023-02-25T11:34:10.479Z,982.9
2023-02-25T11:37:06.024Z,983
2023-02-25T11:40:19.852Z,983
2023-02-25T11:43:12.215Z,983.1
2023-02-25T11:46:03.910Z,983.1
2023-02-25T11:48:57.703Z,983.2
2023-02-25T11:51:57.138Z,983.2
2023-02-25T11:54:50.455Z,983.2
2023-02-25T11:57:50.251Z,983.3
2023-02-25T12:00:54.370Z,983.3
2023-02-25T12:03:45.895Z,983.5
2023-02-25T12:06:56.595Z,983.5
2023-02-25T12:10:07.599Z,983.5
2023-02-25T12:13:15.849Z,983.6
2023-02-25T12:16:22.294Z,983.9
2023-02-25T12:19:50.037Z,983.8
2023-02-25T12:23:03.371Z,983.9
2023-02-25T12:26:54.280Z,984.1
2023-02-25T12:30:24.843Z,984.1
2023-02-25T12:33:42.438Z,984.1
2023-02-25T12:36:48.660Z,984.3
2023-02-25T12:39:50.553Z,984.4
2023-02-25T12:42:52.709Z,984.4
2023-02-25T12:45:54.101Z,984.6
2023-02-25T12:49:10.041Z,984.6
2023-02-25T12:52:24.469Z,984.6
2023-02-25T12:55:25.966Z,984.7
2023-02-25T12:58:54.444Z,984.9
2023-02-25T13:02:05.554Z,984.9
2023-02-25T13:05:35.785Z,984.9
2023-02-25T13:09:11.601Z,985
2023-02-25T13:12:21.845Z,985
2023-02-25T13:15:29.690Z,985.1
2023-02-25T13:18:26.021Z,985.1
2023-02-25T13:21:23.748Z,985.3
2023-02-25T13:24:24.798Z,985.4
2023-02-25T13:27:27.893Z,985.4
2023-02-25T13:30:28.596Z,985.5
2023-02-25T13:33:26.501Z,985.6
2023-02-25T13:36:28.556Z,985.6
2023-02-25T13:39:40.619Z,985.6
2023-02-25T13:43:01.567Z,985.7
2023-02-25T13:46:14.257Z,985.7
2023-02-25T13:49:21.806Z,985.8
2023-02-25T13:52:40.794Z,986
2023-02-25T13:55:44.350Z,986
2023-02-25T13:58:54.656Z,986.1
2023-02-25T14:01:57.166Z,986.1
2023-02-25T14:04:57.269Z,986.2
2023-02-25T14:08:13.106Z,986.1
2023-02-25T14:11:29.336Z,986.2
2023-02-25T14:14:32.494Z,986.4
2023-02-25T14:17:49.624Z,986.4
2023-02-25T14:20:50.316Z,986.5
2023-02-25T14:23:51.990Z,986.6
2023-02-25T14:26:46.856Z,986.6
2023-02-25T14:29:44.826Z,986.7
2023-02-25T14:32:48.547Z,986.7
2023-02-25T14:35:52.760Z,986.8
2023-02-25T14:38:52.584Z,986.8
2023-02-25T14:41:59.848Z,987
2023-02-25T14:45:02.898Z,987
2023-02-25T14:48:04.059Z,987.1
2023-02-25T14:50:59.385Z,987.2
2023-02-25T14:54:05.505Z,987.1
2023-02-25T14:57:49.020Z,987.4
2023-02-25T15:01:06.022Z,987.4
2023-02-25T15:04:39.480Z,987.5
2023-02-25T15:07:49.181Z,987.6
2023-02-25T15:10:54.176Z,987.7
2023-02-25T15:14:02.041Z,987.7
2023-02-25T15:17:21.361Z,987.8
2023-02-25T15:20:27.500Z,987.8
2023-02-25T15:23:19.100Z,987.9
2023-02-25T15:26:25.937Z,988.1
2023-02-25T15:29:27.740Z,988
2023-02-25T15:32:48.026Z,988.1
2023-02-25T15:35:42.418Z,988.4
2023-02-25T15:38:42.546Z,988.4
2023-02-25T15:41:32.083Z,988.4
2023-02-25T15:44:30.180Z,988.5
2023-02-25T15:47:20.791Z,988.5
2023-02-25T15:50:11.990Z,988.6
2023-02-25T15:53:37.790Z,988.7
2023-02-25T15:56:29.560Z,988.8
2023-02-25T15:59:34.171Z,989
2023-02-25T16:02:27.263Z,989
2023-02-25T16:05:23.557Z,989.1
2023-02-25T16:08:17.300Z,989.2
2023-02-25T16:11:09.374Z,989.2
2023-02-25T16:14:08.821Z,989.4
2023-02-25T16:17:02.356Z,989.3
2023-02-25T16:19:59.230Z,989.5
2023-02-25T16:22:56.578Z,989.5
2023-02-25T16:25:45.780Z,989.5
2023-02-25T16:28:42.900Z,989.8
2023-02-25T16:31:39.388Z,989.7
2023-02-25T16:34:35.240Z,989.8
2023-02-25T16:37:31.558Z,989.8
2023-02-25T16:40:27.878Z,989.9
2023-02-25T16:43:19.545Z,990
2023-02-25T16:46:10.485Z,990
2023-02-25T16:49:02.423Z,990.1
2023-02-25T16:51:55.029Z,990.1
2023-02-25T16:54:43.280Z,990.3
2023-02-25T16:57:32.148Z,990.3
2023-02-25T17:00:21.185Z,990.3
2023-02-25T17:03:09.844Z,990.4
2023-02-25T17:05:57.252Z,990.5
2023-02-25T17:08:49.220Z,990.5
2023-02-25T17:11:36.933Z,990.6
2023-02-25T17:14:24.538Z,990.7
2023-02-25T17:17:13.381Z,990.7
2023-02-25T17:20:06.479Z,990.7
2023-02-25T17:23:01.889Z,990.9
2023-02-25T17:25:54.159Z,990.9
2023-02-25T17:28:43.722Z,991
2023-02-25T17:31:34.483Z,991
2023-02-25T17:34:28.425Z,991.1
2023-02-25T17:37:19.596Z,991.2
2023-02-25T17:40:09.319Z,991.2
2023-02-25T17:43:00.314Z,991.2
2023-02-25T17:46:08.020Z,991.2
2023-02-25T17:49:12.054Z,991.3
2023-02-25T17:52:06.304Z,991.3
2023-02-25T17:55:03.818Z,991.4
2023-02-25T17:58:08.995Z,991.5
2023-02-25T18:01:07.600Z,991.6
2023-02-25T18:04:07.773Z,991.5
2023-02-25T18:07:09.376Z,991.6
2023-02-25T18:10:07.175Z,991.7
2023-02-25T18:13:29.718Z,991.8
2023-02-25T18:16:20.251Z,991.9
2023-02-25T18:19:17.130Z,991.9
2023-02-25T18:22:11.873Z,992
2023-02-25T18:25:32.524Z,992
2023-02-25T18:28:22.787Z,992
2023-02-25T18:31:10.260Z,992.1
2023-02-25T18:33:59.223Z,992.1
2023-02-25T18:36:47.063Z,992
2023-02-25T18:39:34.676Z,992.2
2023-02-25T18:42:22.504Z,992.3
2023-02-25T18:45:09.964Z,992.2
2023-02-25T18:48:00.529Z,992.4
2023-02-25T18:50:48.331Z,992.4
2023-02-25T18:53:35.769Z,992.5
2023-02-25T18:56:24.065Z,992.5
2023-02-25T18:59:11.526Z,992.5
2023-02-25T19:01:59.118Z,992.6
2023-02-25T19:04:47.163Z,992.7
2023-02-25T19:07:34.499Z,992.7
2023-02-25T19:10:22.328Z,992.7
2023-02-25T19:13:11.509Z,992.8
2023-02-25T19:16:02.086Z,992.8
2023-02-25T19:18:50.357Z,992.9
2023-02-25T19:21:37.831Z,993
2023-02-25T19:24:25.292Z,993
2023-02-25T19:27:12.713Z,993.1
2023-02-25T19:30:05.397Z,993.2
2023-02-25T19:32:58.899Z,993.2
2023-02-25T19:35:48.090Z,993.2
2023-02-25T19:38:35.536Z,993.2
2023-02-25T19:41:22.873Z,993.3
2023-02-25T19:44:10.265Z,993.3
2023-02-25T19:46:57.591Z,993.3
2023-02-25T19:49:45.209Z,993.4
2023-02-25T19:52:32.567Z,993.4
2023-02-25T19:55:20.806Z,993.5
2023-02-25T19:58:08.752Z,993.5
2023-02-25T20:00:56.358Z,993.6
2023-02-25T20:03:48.066Z,993.7
2023-02-25T20:06:35.781Z,993.7
2023-02-25T20:09:23.801Z,993.7
2023-02-25T20:12:11.657Z,993.8
2023-02-25T20:14:59.859Z,993.8
2023-02-25T20:17:47.823Z,993.8
2023-02-25T20:20:39.497Z,993.8
2023-02-25T20:23:27.535Z,993.8
2023-02-25T20:26:16.197Z,993.9
2023-02-25T20:29:05.345Z,993.9
2023-02-25T20:31:55.354Z,994
2023-02-25T20:34:44.142Z,994.1
2023-02-25T20:37:32.590Z,994.1
2023-02-25T20:40:24.406Z,994.2
2023-02-25T20:43:12.566Z,994.3
2023-02-25T20:46:01.702Z,994.4
2023-02-25T20:48:50.374Z,994.3
2023-02-25T20:51:38.955Z,994.4
2023-02-25T20:54:29.290Z,994.5
2023-02-25T20:57:16.952Z,994.4
2023-02-25T21:00:07.024Z,994.5
2023-02-25T21:03:00.698Z,994.6
2023-02-25T21:05:49.416Z,994.7
2023-02-25T21:08:37.508Z,994.6
2023-02-25T21:11:26.318Z,994.6
2023-02-25T21:14:14.301Z,994.7
2023-02-25T21:17:02.510Z,994.6
2023-02-25T21:19:53.952Z,994.7
2023-02-25T21:22:41.858Z,994.8
2023-02-25T21:25:29.938Z,995
2023-02-25T21:28:17.926Z,994.9
2023-02-25T21:31:06.338Z,995
2023-02-25T21:33:56.485Z,994.9
2023-02-25T21:36:44.573Z,995
2023-02-25T21:39:32.432Z,995
2023-02-25T21:42:20.365Z,995
2023-02-25T21:45:08.786Z,995.1
2023-02-25T21:47:57.740Z,995.1
2023-02-25T21:50:45.810Z,995.1
2023-02-25T21:53:34.042Z,995.1
2023-02-25T21:56:22.129Z,995.2
2023-02-25T21:59:11.544Z,995.3
2023-02-25T22:02:01.456Z,995.2
2023-02-25T22:04:49.245Z,995.3
2023-02-25T22:07:37.114Z,995.4
2023-02-25T22:10:25.017Z,995.4
2023-02-25T22:13:12.922Z,995.5
2023-02-25T22:16:00.635Z,995.4
2023-02-25T22:18:48.849Z,995.5
2023-02-25T22:21:37.162Z,995.5
2023-02-25T22:24:25.041Z,995.5
2023-02-25T22:27:13.060Z,995.5
2023-02-25T22:30:00.732Z,995.6
2023-02-25T22:32:50.439Z,995.5
2023-02-25T22:35:38.190Z,995.6
2023-02-25T22:38:25.853Z,995.7
2023-02-25T22:41:14.316Z,995.6
2023-02-25T22:44:04.565Z,995.8
2023-02-25T22:46:53.293Z,995.8
2023-02-25T22:49:41.053Z,995.9
2023-02-25T22:52:28.557Z,995.9
2023-02-25T22:55:16.263Z,996
2023-02-25T22:58:03.812Z,996
2023-02-25T23:00:51.835Z,996
2023-02-25T23:03:39.481Z,996
2023-02-25T23:06:42.430Z,996.1
2023-02-25T23:09:31.155Z,996.2
2023-02-25T23:12:20.630Z,996.2
2023-02-25T23:15:08.929Z,996.3
2023-02-25T23:17:57.248Z,996.4
2023-02-25T23:20:48.085Z,996.4
2023-02-25T23:23:38.226Z,996.4
2023-02-25T23:26:27.213Z,996.5
2023-02-25T23:29:18.323Z,996.5
2023-02-25T23:32:06.795Z,996.5
2023-02-25T23:34:55.559Z,996.5
2023-02-25T23:37:42.997Z,996.6
2023-02-25T23:40:31.846Z,996.7
2023-02-25T23:43:20.169Z,996.7
2023-02-25T23:46:08.082Z,996.7
2023-02-25T23:48:56.327Z,996.8
2023-02-25T23:51:46.202Z,996.9
2023-02-25T23:54:34.187Z,996.9
2023-02-25T23:57:21.815Z,996.9
